Time;durP1;ratioP1;P1;durP2;ratioP2;P2;SDS_P1;SDS_P2;PMS_P1;PMS_P2;Temp;Humidity;BMP_temperature;BMP_pressure;BME280_temperature;BME280_humidity;BME280_pressure;Samples;Min_cycle;Max_cycle;Signal;HPM_P1;HPM_P2
2024/03/13 00:01:43;;;;;;;17.83;9.97;;;5.10;99.90;;;;;;5092892;28;20021;-74
2024/03/13 00:04:09;;;;;;;16.03;9.93;;;5.10;99.90;;;;;;5092546;28;20034;-74
2024/03/13 00:06:36;;;;;;;17.37;9.63;;;5.10;99.90;;;;;;5092689;28;20107;-75
2024/03/13 00:09:03;;;;;;;14.67;9.07;;;5.10;99.90;;;;;;5092856;28;20054;-74
2024/03/13 00:11:29;;;;;;;17.00;10.80;;;5.10;99.90;;;;;;5092762;28;20031;-74
2024/03/13 00:13:55;;;;;;;15.47;9.67;;;5.10;99.90;;;;;;5092860;28;20024;-75
2024/03/13 00:16:21;;;;;;;16.87;10.20;;;5.20;99.90;;;;;;5092510;28;20027;-75
2024/03/13 00:18:46;;;;;;;16.57;10.00;;;5.20;99.90;;;;;;5092620;28;20085;-75
2024/03/13 00:21:12;;;;;;;19.23;10.37;;;5.20;99.90;;;;;;5093159;28;20028;-74
2024/03/13 00:23:38;;;;;;;17.03;9.77;;;5.20;99.90;;;;;;5092983;28;20020;-74
2024/03/13 00:26:04;;;;;;;17.23;9.33;;;5.20;99.90;;;;;;5092649;28;20028;-75
2024/03/13 00:28:29;;;;;;;16.27;9.60;;;5.20;99.90;;;;;;5092840;28;20481;-74
2024/03/13 00:30:55;;;;;;;16.93;10.10;;;5.20;99.90;;;;;;5092691;28;20069;-74
2024/03/13 00:33:20;;;;;;;17.07;10.30;;;5.20;99.90;;;;;;5092334;28;20078;-75
2024/03/13 00:35:46;;;;;;;18.17;10.67;;;5.20;99.90;;;;;;5091634;28;20175;-75
2024/03/13 00:38:11;;;;;;;17.07;10.07;;;5.20;99.90;;;;;;5092341;28;20110;-74
2024/03/13 00:40:38;;;;;;;18.33;10.13;;;5.20;99.90;;;;;;5095042;28;20036;-74
2024/03/13 00:43:04;;;;;;;18.00;10.80;;;5.20;99.90;;;;;;5103733;28;20478;-74
2024/03/13 00:45:29;;;;;;;20.63;11.77;;;5.20;99.90;;;;;;5112595;28;20063;-75
2024/03/13 00:47:55;;;;;;;17.17;9.73;;;5.20;99.90;;;;;;5112462;28;20149;-75
2024/03/13 00:50:21;;;;;;;20.83;10.23;;;5.20;99.90;;;;;;5112423;28;20175;-74
2024/03/13 00:52:47;;;;;;;17.67;10.23;;;5.20;99.90;;;;;;5112445;28;20080;-75
2024/03/13 00:55:12;;;;;;;17.87;10.97;;;5.20;99.90;;;;;;5112043;28;20024;-75
2024/03/13 00:57:41;;;;;;;19.27;11.20;;;5.10;99.90;;;;;;5112084;28;20066;-75
2024/03/13 01:00:12;;;;;;;18.73;10.23;;;5.20;99.90;;;;;;5112272;28;20369;-75
2024/03/13 01:02:40;;;;;;;16.90;10.40;;;5.20;99.90;;;;;;5112214;28;20094;-74
2024/03/13 01:05:06;;;;;;;17.73;10.43;;;5.20;99.90;;;;;;5111839;28;20031;-74
2024/03/13 01:07:33;;;;;;;19.37;10.70;;;5.20;99.90;;;;;;5112092;28;20204;-75
2024/03/13 01:10:02;;;;;;;17.90;11.13;;;5.20;99.90;;;;;;5112142;28;20076;-75
2024/03/13 01:12:28;;;;;;;16.90;10.17;;;5.20;99.90;;;;;;5112216;28;20027;-74
2024/03/13 01:14:53;;;;;;;16.60;10.27;;;5.20;99.90;;;;;;5111112;28;20019;-74
2024/03/13 01:17:19;;;;;;;15.90;10.00;;;5.20;99.90;;;;;;5112081;28;20537;-74
2024/03/13 01:19:45;;;;;;;16.30;9.77;;;5.20;99.90;;;;;;5112083;28;20477;-74
2024/03/13 01:22:17;;;;;;;15.30;9.57;;;5.30;99.90;;;;;;5111894;28;20043;-75
2024/03/13 01:24:43;;;;;;;15.97;9.57;;;5.30;99.90;;;;;;5111523;28;20015;-75
2024/03/13 01:27:09;;;;;;;15.27;8.93;;;5.30;99.90;;;;;;5111841;28;20028;-74
2024/03/13 01:29:36;;;;;;;16.53;9.30;;;5.20;99.90;;;;;;5111527;28;20400;-74
2024/03/13 01:32:01;;;;;;;15.80;9.03;;;5.30;99.90;;;;;;5112062;28;20024;-75
2024/03/13 01:34:27;;;;;;;14.80;8.97;;;5.30;99.90;;;;;;5111069;28;20039;-74
2024/03/13 01:39:37;;;;;;;13.73;8.77;;;5.30;99.90;;;;;;5111467;28;20096;-75
2024/03/13 01:57:02;;;;;;;15.37;8.47;;;5.30;99.90;;;;;;5052611;28;20452;-74
2024/03/13 01:59:48;;;;;;;14.03;9.83;;;5.30;99.90;;;;;;5078357;28;20036;-74
2024/03/13 02:02:26;;;;;;;15.60;9.27;;;5.30;99.90;;;;;;5095347;28;20472;-75
2024/03/13 02:04:53;;;;;;;15.50;9.27;;;5.30;99.90;;;;;;5094638;28;20492;-75
2024/03/13 02:07:23;;;;;;;19.40;8.83;;;5.30;99.90;;;;;;5095284;28;20067;-75
2024/03/13 02:09:49;;;;;;;15.53;9.53;;;5.30;99.90;;;;;;5095205;28;20024;-75
2024/03/13 02:12:15;;;;;;;15.73;9.20;;;5.30;99.90;;;;;;5095042;28;20031;-74
2024/03/13 02:14:40;;;;;;;15.13;9.30;;;5.30;99.90;;;;;;5094639;28;20025;-75
2024/03/13 02:17:06;;;;;;;19.63;10.10;;;5.30;99.90;;;;;;5094845;28;20027;-74
2024/03/13 02:19:36;;;;;;;15.03;8.83;;;5.30;99.90;;;;;;5095009;28;20032;-75
2024/03/13 02:22:06;;;;;;;17.40;10.13;;;5.30;99.90;;;;;;5095264;28;20024;-74
2024/03/13 02:24:35;;;;;;;15.17;8.87;;;5.30;99.90;;;;;;5094118;28;20121;-74
2024/03/13 02:27:07;;;;;;;16.37;9.90;;;5.30;99.90;;;;;;5094868;28;20086;-74
2024/03/13 02:29:33;;;;;;;19.47;10.00;;;5.30;99.90;;;;;;5094944;28;20016;-75
2024/03/13 02:32:00;;;;;;;16.83;9.50;;;5.30;99.90;;;;;;5094534;28;20065;-74
2024/03/13 02:34:25;;;;;;;15.53;9.00;;;5.30;99.90;;;;;;5094318;28;20051;-74
2024/03/13 02:36:54;;;;;;;14.07;8.87;;;5.20;99.90;;;;;;5094956;28;20044;-75
2024/03/13 02:39:20;;;;;;;16.60;9.17;;;5.30;99.90;;;;;;5094457;28;20162;-74
2024/03/13 02:41:46;;;;;;;15.93;8.57;;;5.30;99.90;;;;;;5106218;28;20094;-75
2024/03/13 02:44:11;;;;;;;14.57;8.93;;;5.20;99.90;;;;;;5094707;28;20065;-75
2024/03/13 02:46:37;;;;;;;16.40;9.73;;;5.20;99.90;;;;;;5094423;28;20170;-74
2024/03/13 02:49:03;;;;;;;15.00;9.00;;;5.20;99.90;;;;;;5094418;28;20020;-74
2024/03/13 02:51:29;;;;;;;14.13;9.57;;;5.20;99.90;;;;;;5094539;28;20042;-74
2024/03/13 02:53:54;;;;;;;13.90;8.40;;;5.20;99.90;;;;;;5094232;28;20026;-74
2024/03/13 02:56:20;;;;;;;11.03;7.83;;;5.20;99.90;;;;;;5093917;28;20480;-75
2024/03/13 02:58:48;;;;;;;14.13;8.03;;;5.20;99.90;;;;;;5093935;28;20103;-74
2024/03/13 03:01:13;;;;;;;15.17;8.47;;;5.20;99.90;;;;;;5094177;28;20081;-74
2024/03/13 03:03:39;;;;;;;13.77;8.87;;;5.20;99.90;;;;;;5094079;28;20394;-74
2024/03/13 03:06:08;;;;;;;14.47;8.33;;;5.20;99.90;;;;;;5093648;28;20484;-75
2024/03/13 03:08:37;;;;;;;11.60;7.70;;;5.20;99.90;;;;;;5093835;28;20051;-75
2024/03/13 03:11:03;;;;;;;10.90;7.20;;;5.20;99.90;;;;;;5094104;28;20024;-74
2024/03/13 03:13:30;;;;;;;13.13;7.53;;;5.20;99.90;;;;;;5093708;28;20449;-74
2024/03/13 03:15:55;;;;;;;13.43;7.77;;;5.10;99.90;;;;;;5093821;28;20032;-74
2024/03/13 03:18:22;;;;;;;11.93;8.13;;;5.20;99.90;;;;;;5093532;28;20487;-74
2024/03/13 03:20:47;;;;;;;13.87;7.53;;;5.10;99.90;;;;;;5094254;28;20115;-75
2024/03/13 03:23:14;;;;;;;12.67;7.13;;;5.10;99.90;;;;;;5093753;28;20536;-74
2024/03/13 03:25:39;;;;;;;11.13;6.70;;;5.10;99.90;;;;;;5093602;28;20043;-75
2024/03/13 03:28:05;;;;;;;9.40;6.43;;;5.10;99.90;;;;;;5093506;28;20055;-75
2024/03/13 03:30:31;;;;;;;10.43;6.60;;;5.10;99.90;;;;;;5093679;28;20104;-74
2024/03/13 03:32:58;;;;;;;8.13;5.70;;;5.10;99.90;;;;;;5093523;28;20028;-75
2024/03/13 03:35:24;;;;;;;8.93;5.27;;;5.10;99.90;;;;;;5093325;28;20020;-75
2024/03/13 03:37:51;;;;;;;7.60;4.97;;;5.10;99.90;;;;;;5093303;28;20028;-75
2024/03/13 03:40:17;;;;;;;6.00;4.47;;;5.10;99.90;;;;;;5096243;28;20423;-75
2024/03/13 03:42:42;;;;;;;5.47;4.30;;;5.00;99.90;;;;;;5102045;28;20103;-74
2024/03/13 03:45:08;;;;;;;5.30;3.73;;;5.00;99.90;;;;;;5093055;28;20157;-74
2024/03/13 03:47:35;;;;;;;6.20;3.90;;;5.10;99.90;;;;;;5093153;28;20047;-74
2024/03/13 03:50:01;;;;;;;4.90;3.53;;;5.10;99.90;;;;;;5093454;28;20036;-74
2024/03/13 03:52:26;;;;;;;5.03;3.40;;;5.10;99.90;;;;;;5093400;28;20026;-74
2024/03/13 03:54:52;;;;;;;4.70;3.40;;;5.10;99.90;;;;;;5092554;28;20024;-75
2024/03/13 03:57:19;;;;;;;4.27;3.27;;;5.00;99.90;;;;;;5092888;28;20047;-74
2024/03/13 03:59:45;;;;;;;3.00;2.47;;;5.00;99.90;;;;;;5093168;28;20028;-74
2024/03/13 04:02:11;;;;;;;3.50;2.67;;;5.10;99.90;;;;;;5093239;28;20610;-74
2024/03/13 04:04:37;;;;;;;3.57;2.50;;;5.00;99.90;;;;;;5092939;28;20012;-74
2024/03/13 04:07:02;;;;;;;4.13;2.80;;;5.00;99.90;;;;;;5112105;28;20059;-74
2024/03/13 04:09:28;;;;;;;4.47;2.70;;;5.00;99.90;;;;;;5114073;28;20027;-74
2024/03/13 04:11:54;;;;;;;2.97;2.27;;;5.00;99.90;;;;;;5113119;28;20031;-74
2024/03/13 04:14:19;;;;;;;4.03;2.90;;;4.90;99.90;;;;;;5112949;28;20027;-74
2024/03/13 04:16:45;;;;;;;3.37;2.43;;;4.90;99.90;;;;;;5112651;28;20039;-75
2024/03/13 04:19:11;;;;;;;3.20;2.10;;;4.90;99.90;;;;;;5113198;28;20035;-74
2024/03/13 04:21:38;;;;;;;2.80;2.23;;;4.90;99.90;;;;;;5113045;28;20111;-74
2024/03/13 04:24:03;;;;;;;2.70;2.00;;;4.80;99.90;;;;;;5112786;28;20408;-74
2024/03/13 04:26:29;;;;;;;3.10;2.30;;;4.80;99.90;;;;;;5112369;28;20063;-75
2024/03/13 04:28:58;;;;;;;2.60;2.20;;;4.80;99.90;;;;;;5113045;28;20448;-75
2024/03/13 04:31:25;;;;;;;2.90;2.20;;;4.80;99.90;;;;;;5112948;28;20148;-74
2024/03/13 04:33:50;;;;;;;3.37;2.60;;;4.80;99.90;;;;;;5112778;28;20491;-74
2024/03/13 04:36:16;;;;;;;2.93;2.33;;;4.70;99.90;;;;;;5112471;28;20026;-74
2024/03/13 04:38:41;;;;;;;3.20;2.50;;;4.80;99.90;;;;;;5112520;28;20095;-75
2024/03/13 04:41:09;;;;;;;4.13;2.73;;;4.70;99.90;;;;;;5106415;28;20024;-74
2024/03/13 04:43:35;;;;;;;3.30;2.40;;;4.80;99.90;;;;;;5096470;28;20561;-74
2024/03/13 04:46:00;;;;;;;3.83;2.27;;;4.70;99.90;;;;;;5091926;28;20055;-74
2024/03/13 04:48:25;;;;;;;4.47;2.70;;;4.70;99.90;;;;;;5091959;28;20024;-75
2024/03/13 04:50:51;;;;;;;4.93;2.80;;;4.70;99.90;;;;;;5092266;28;20495;-74
2024/03/13 04:53:22;;;;;;;4.53;2.70;;;4.70;99.90;;;;;;5091975;28;20028;-75
2024/03/13 04:55:48;;;;;;;4.20;3.00;;;4.70;99.90;;;;;;5091562;28;20495;-74
2024/03/13 04:58:14;;;;;;;3.53;2.40;;;4.80;99.90;;;;;;5091830;28;20089;-74
2024/03/13 05:00:39;;;;;;;3.10;2.30;;;4.80;99.90;;;;;;5091928;28;20024;-74
2024/03/13 05:03:06;;;;;;;3.90;2.53;;;4.80;99.90;;;;;;5092033;28;20027;-74
2024/03/13 05:05:32;;;;;;;4.77;2.50;;;4.80;99.90;;;;;;5091639;28;20388;-75
2024/03/13 05:07:58;;;;;;;2.87;2.30;;;4.80;99.90;;;;;;5091727;28;20024;-74
2024/03/13 05:10:27;;;;;;;4.57;2.60;;;4.80;99.90;;;;;;5091769;28;20126;-74
2024/03/13 05:12:53;;;;;;;4.30;2.60;;;4.80;99.90;;;;;;5102600;28;20047;-75
2024/03/13 05:15:18;;;;;;;3.57;2.60;;;4.80;99.90;;;;;;5110250;28;20042;-74
2024/03/13 05:17:44;;;;;;;4.90;2.77;;;4.80;99.90;;;;;;5111581;28;20023;-75
2024/03/13 05:20:12;;;;;;;5.50;3.00;;;4.80;99.90;;;;;;5111788;28;20217;-75
2024/03/13 05:22:38;;;;;;;3.53;2.73;;;4.80;99.90;;;;;;5111617;28;20507;-74
2024/03/13 05:25:22;;;;;;;4.20;3.27;;;4.80;99.90;;;;;;5111076;28;20035;-75
2024/03/13 05:27:49;;;;;;;3.63;2.87;;;4.80;99.90;;;;;;5110307;28;20035;-74
2024/03/13 05:30:17;;;;;;;4.77;3.20;;;4.80;99.90;;;;;;5111585;28;20149;-74
2024/03/13 05:32:45;;;;;;;2.80;2.47;;;4.80;99.90;;;;;;5111187;28;20036;-74
2024/03/13 05:35:13;;;;;;;4.13;3.00;;;4.80;99.90;;;;;;5110350;28;20432;-74
2024/03/13 05:37:39;;;;;;;3.93;2.83;;;4.80;99.90;;;;;;5109450;28;20031;-75
2024/03/13 05:40:17;;;;;;;4.57;2.97;;;4.80;99.90;;;;;;5107925;28;20480;-75
2024/03/13 05:42:43;;;;;;;3.70;2.83;;;4.80;99.90;;;;;;5111022;28;20024;-75
2024/03/13 05:45:09;;;;;;;5.63;3.10;;;4.80;99.90;;;;;;5110145;28;20016;-75
2024/03/13 05:47:35;;;;;;;4.30;3.10;;;4.70;99.90;;;;;;5110742;28;20073;-75
2024/03/13 05:50:02;;;;;;;3.33;2.70;;;4.80;99.90;;;;;;5111185;28;20023;-75
2024/03/13 05:52:27;;;;;;;3.57;2.90;;;4.70;99.90;;;;;;5111060;28;20027;-75
2024/03/13 05:54:53;;;;;;;4.13;2.97;;;4.80;99.90;;;;;;5106149;28;20028;-75
2024/03/13 05:57:24;;;;;;;5.27;3.90;;;4.70;99.90;;;;;;5106990;28;20098;-75
2024/03/13 05:59:50;;;;;;;6.33;3.00;;;4.80;99.90;;;;;;5113278;28;20570;-76
2024/03/13 06:02:16;;;;;;;5.83;3.17;;;4.80;99.90;;;;;;5112072;28;20098;-76
2024/03/13 06:04:42;;;;;;;5.63;3.20;;;4.80;99.90;;;;;;5109599;28;20032;-76
2024/03/13 06:07:08;;;;;;;3.60;3.07;;;4.80;99.90;;;;;;5115807;28;20110;-75
2024/03/13 06:09:33;;;;;;;5.40;3.20;;;4.80;99.90;;;;;;5112045;28;20600;-76
2024/03/13 06:11:59;;;;;;;4.17;3.10;;;4.90;99.90;;;;;;5111877;28;20016;-76
2024/03/13 06:14:25;;;;;;;4.60;3.43;;;4.90;99.90;;;;;;5113522;28;20360;-75
2024/03/13 06:16:50;;;;;;;6.17;3.40;;;4.90;99.90;;;;;;5113750;28;20084;-76
2024/03/13 06:19:16;;;;;;;7.83;3.63;;;5.00;99.90;;;;;;5118237;28;20106;-76
2024/03/13 06:21:41;;;;;;;4.60;3.57;;;5.00;99.90;;;;;;5115639;28;20024;-76
2024/03/13 06:24:07;;;;;;;6.20;3.33;;;5.00;99.90;;;;;;5121549;28;20089;-81
2024/03/13 06:26:33;;;;;;;6.60;3.90;;;5.00;99.90;;;;;;5125944;28;20020;-81
2024/03/13 06:31:43;;;;;;;4.23;3.13;;;5.00;99.90;;;;;;5125930;28;20057;-81
2024/03/13 06:34:09;;;;;;;4.43;3.37;;;5.00;99.90;;;;;;5127265;27;20023;-81
2024/03/13 06:36:39;;;;;;;5.13;3.37;;;5.00;99.90;;;;;;5139449;27;20106;-81
2024/03/13 06:39:05;;;;;;;4.93;3.50;;;5.10;99.90;;;;;;5137567;27;20020;-81
2024/03/13 06:41:30;;;;;;;4.40;3.03;;;5.10;99.90;;;;;;5133686;27;20037;-81
2024/03/13 06:43:56;;;;;;;5.43;3.10;;;5.10;99.90;;;;;;5133711;27;20035;-81
2024/03/13 06:46:24;;;;;;;4.27;3.07;;;5.20;99.90;;;;;;5138833;27;20031;-82
2024/03/13 06:48:50;;;;;;;6.70;3.87;;;5.10;99.90;;;;;;5139044;27;20023;-82
2024/03/13 06:51:16;;;;;;;5.53;3.57;;;5.20;99.90;;;;;;5141536;27;20048;-81
2024/03/13 06:53:41;;;;;;;4.93;3.10;;;5.20;99.90;;;;;;5137319;27;20031;-81
2024/03/13 06:56:07;;;;;;;4.27;2.90;;;5.20;99.90;;;;;;5139155;27;20020;-82
2024/03/13 06:58:33;;;;;;;7.07;3.50;;;5.20;99.90;;;;;;5134380;27;20507;-82
2024/03/13 07:00:58;;;;;;;5.03;3.27;;;5.30;99.90;;;;;;5132225;27;20032;-81
2024/03/13 07:03:24;;;;;;;4.40;3.20;;;5.30;99.90;;;;;;5125631;27;20023;-81
2024/03/13 07:05:51;;;;;;;4.80;3.33;;;5.30;99.90;;;;;;5125743;27;20023;-81
2024/03/13 07:08:18;;;;;;;5.20;3.00;;;5.40;99.90;;;;;;5126901;27;20110;-82
2024/03/13 07:10:44;;;;;;;7.17;2.70;;;5.40;99.90;;;;;;5127984;27;20490;-82
2024/03/13 07:13:09;;;;;;;3.90;2.30;;;5.50;99.90;;;;;;5129978;27;20081;-82
2024/03/13 07:15:35;;;;;;;3.20;2.23;;;5.50;99.90;;;;;;5106857;27;20038;-81
2024/03/13 07:18:03;;;;;;;3.83;2.33;;;5.60;99.90;;;;;;5132386;27;20079;-76
2024/03/13 07:20:29;;;;;;;3.43;2.23;;;5.70;99.90;;;;;;5121714;27;20083;-77
2024/03/13 07:22:54;;;;;;;3.00;2.17;;;5.70;99.90;;;;;;5121286;27;20503;-76
2024/03/13 07:25:20;;;;;;;3.27;1.83;;;5.80;99.90;;;;;;5119523;27;20038;-77
2024/03/13 07:27:45;;;;;;;3.47;1.83;;;5.90;99.90;;;;;;5118809;27;20067;-77
2024/03/13 07:30:11;;;;;;;5.33;2.80;;;6.00;99.90;;;;;;5119933;27;20107;-78
2024/03/13 07:32:39;;;;;;;3.33;1.93;;;6.00;99.90;;;;;;5118727;27;20039;-71
2024/03/13 07:35:05;;;;;;;5.57;2.10;;;6.00;99.90;;;;;;5120543;27;20027;-77
2024/03/13 07:37:31;;;;;;;2.23;1.63;;;6.10;99.90;;;;;;5123865;27;20612;-78
2024/03/13 07:39:57;;;;;;;3.07;1.67;;;6.10;99.90;;;;;;5116079;27;20531;-78
2024/03/13 07:42:25;;;;;;;3.37;1.87;;;6.10;99.90;;;;;;5117622;27;20027;-77
2024/03/13 07:44:51;;;;;;;3.60;2.20;;;6.20;99.90;;;;;;5114571;27;20459;-77
2024/03/13 07:47:17;;;;;;;3.03;1.90;;;6.20;99.90;;;;;;5116100;27;20040;-77
2024/03/13 07:49:43;;;;;;;2.47;2.00;;;6.20;99.90;;;;;;5120232;27;20030;-77
2024/03/13 07:52:08;;;;;;;2.70;1.70;;;6.20;99.90;;;;;;5122789;27;20506;-78
2024/03/13 07:54:37;;;;;;;3.20;1.83;;;6.30;99.90;;;;;;5119685;27;20051;-77
2024/03/13 07:57:04;;;;;;;3.37;1.90;;;6.30;99.90;;;;;;5113167;27;20031;-77
2024/03/13 07:59:30;;;;;;;2.83;1.97;;;6.40;99.90;;;;;;5117916;27;20036;-78
2024/03/13 08:01:55;;;;;;;2.37;1.70;;;6.50;99.90;;;;;;5116171;27;20111;-77
2024/03/13 08:04:23;;;;;;;3.27;1.67;;;6.60;99.90;;;;;;5116793;27;20119;-78
2024/03/13 08:06:49;;;;;;;3.20;2.07;;;6.60;99.90;;;;;;5114034;27;20038;-77
2024/03/13 08:09:15;;;;;;;10.63;2.10;;;6.70;99.90;;;;;;5095937;28;20104;-77
2024/03/13 08:11:40;;;;;;;4.93;2.10;;;6.70;99.90;;;;;;5113820;27;20023;-77
2024/03/13 08:14:06;;;;;;;3.13;1.63;;;6.70;99.90;;;;;;5114730;27;20046;-78
2024/03/13 08:16:32;;;;;;;11.00;2.47;;;6.80;99.90;;;;;;5116976;27;20027;-78
2024/03/13 08:18:58;;;;;;;5.33;1.70;;;6.90;99.90;;;;;;5121359;27;20023;-78
2024/03/13 08:21:26;;;;;;;2.70;1.67;;;6.80;99.90;;;;;;5119855;27;20023;-78
2024/03/13 08:23:52;;;;;;;2.47;1.60;;;6.90;99.90;;;;;;5114887;27;20055;-78
2024/03/13 08:26:18;;;;;;;2.13;1.53;;;7.00;99.90;;;;;;5120402;27;20051;-78
2024/03/13 08:28:43;;;;;;;1.60;1.20;;;7.00;99.90;;;;;;5115892;27;20502;-79
2024/03/13 08:31:10;;;;;;;6.87;1.70;;;7.10;99.90;;;;;;5121240;27;20079;-78
2024/03/13 08:33:36;;;;;;;3.57;1.57;;;7.10;99.90;;;;;;5122194;27;20114;-78
2024/03/13 08:36:02;;;;;;;2.33;1.30;;;7.20;99.90;;;;;;5121713;27;20119;-78
2024/03/13 08:38:29;;;;;;;2.43;1.57;;;7.20;99.90;;;;;;5119051;27;20043;-77
2024/03/13 08:40:56;;;;;;;1.83;1.13;;;7.20;99.90;;;;;;5116901;27;20032;-79
2024/03/13 08:43:23;;;;;;;2.13;1.13;;;7.20;99.90;;;;;;5119196;27;20075;-78
2024/03/13 08:45:50;;;;;;;1.80;1.30;;;7.10;99.90;;;;;;5129041;27;20015;-78
2024/03/13 08:48:15;;;;;;;1.73;1.23;;;7.10;99.90;;;;;;5134570;27;20034;-78
2024/03/13 08:50:41;;;;;;;1.57;1.10;;;7.00;99.90;;;;;;5135037;27;20110;-78
2024/03/13 08:53:06;;;;;;;2.07;1.13;;;7.10;99.90;;;;;;5135053;27;20161;-78
2024/03/13 08:55:35;;;;;;;2.00;1.10;;;7.10;99.90;;;;;;5131326;27;20035;-76
2024/03/13 08:58:02;;;;;;;2.37;1.40;;;7.10;99.90;;;;;;5119199;27;20401;-78
2024/03/13 09:00:28;;;;;;;2.20;0.97;;;7.20;99.90;;;;;;5135130;27;20105;-76
2024/03/13 09:02:56;;;;;;;2.37;1.10;;;7.30;99.90;;;;;;5126270;27;20059;-77
2024/03/13 09:05:22;;;;;;;1.73;1.13;;;7.30;99.90;;;;;;5130912;27;20432;-77
2024/03/13 09:07:47;;;;;;;2.20;1.00;;;7.40;99.90;;;;;;5135117;27;20038;-78
2024/03/13 09:10:13;;;;;;;1.77;1.17;;;7.30;99.90;;;;;;5135141;27;20020;-77
2024/03/13 09:12:41;;;;;;;3.70;1.50;;;7.30;99.90;;;;;;5134875;27;20443;-77
2024/03/13 09:15:09;;;;;;;1.63;1.20;;;7.30;99.90;;;;;;5131019;27;20050;-78
2024/03/13 09:17:35;;;;;;;3.50;2.27;;;7.40;99.90;;;;;;5114611;27;20027;-78
2024/03/13 09:20:01;;;;;;;3.60;1.73;;;7.30;99.90;;;;;;5117152;27;20031;-77
2024/03/13 09:22:27;;;;;;;4.23;1.23;;;7.30;99.90;;;;;;5115892;27;20023;-78
2024/03/13 09:24:53;;;;;;;2.53;1.10;;;7.40;99.90;;;;;;5115575;27;20019;-78
2024/03/13 09:27:19;;;;;;;1.90;1.00;;;7.60;99.90;;;;;;5117857;27;20039;-78
2024/03/13 09:29:45;;;;;;;1.20;1.03;;;7.60;99.90;;;;;;5123424;27;20492;-78
2024/03/13 09:32:10;;;;;;;3.00;1.10;;;7.60;99.90;;;;;;5120295;27;20076;-78
2024/03/13 09:34:36;;;;;;;3.57;1.17;;;7.60;99.90;;;;;;5117163;27;20516;-78
2024/03/13 09:37:04;;;;;;;2.63;1.10;;;7.60;99.90;;;;;;5118712;27;20502;-77
2024/03/13 09:39:31;;;;;;;4.60;1.23;;;7.70;99.90;;;;;;5120658;27;20103;-78
2024/03/13 09:41:57;;;;;;;3.30;1.13;;;7.80;99.90;;;;;;5115717;28;20081;-78
2024/03/13 09:44:24;;;;;;;1.80;0.90;;;7.80;99.90;;;;;;5123863;27;20027;-78
2024/03/13 09:46:53;;;;;;;0.90;0.77;;;7.90;99.90;;;;;;5125448;27;20043;-78
2024/03/13 09:49:18;;;;;;;2.77;0.90;;;8.00;99.90;;;;;;5125174;27;20019;-78
2024/03/13 09:51:45;;;;;;;2.97;0.90;;;8.00;99.90;;;;;;5126580;27;20023;-77
2024/03/13 09:54:16;;;;;;;2.03;1.00;;;8.10;99.90;;;;;;5120182;28;20111;-78
2024/03/13 09:56:43;;;;;;;1.93;1.00;;;8.00;99.90;;;;;;5126800;27;20491;-78
2024/03/13 09:59:10;;;;;;;2.80;1.00;;;8.00;99.90;;;;;;5125930;28;20062;-77
2024/03/13 10:01:42;;;;;;;2.47;1.10;;;8.00;99.90;;;;;;5127802;28;20030;-78
2024/03/13 10:04:12;;;;;;;2.20;1.20;;;8.00;99.90;;;;;;5119521;28;20011;-78
2024/03/13 10:06:43;;;;;;;5.73;1.50;;;8.20;99.90;;;;;;5128084;27;20027;-78
2024/03/13 10:09:12;;;;;;;2.10;1.00;;;8.30;99.90;;;;;;5127607;27;20028;-78
2024/03/13 10:11:48;;;;;;;4.63;1.07;;;8.50;99.90;;;;;;5127753;27;20033;-79
2024/03/13 10:14:14;;;;;;;2.13;1.07;;;8.80;99.90;;;;;;5122884;27;20544;-78
2024/03/13 10:16:43;;;;;;;5.67;1.07;;;8.90;99.90;;;;;;5128477;27;20055;-78
2024/03/13 10:19:12;;;;;;;1.20;0.90;;;9.10;99.90;;;;;;5129684;27;20023;-79
2024/03/13 10:21:40;;;;;;;1.93;1.00;;;9.20;99.90;;;;;;5129726;27;20543;-78
2024/03/13 10:24:08;;;;;;;3.33;1.10;;;9.40;99.90;;;;;;5125588;27;20031;-78
2024/03/13 10:26:39;;;;;;;2.60;1.03;;;9.50;99.90;;;;;;5134698;27;20084;-79
2024/03/13 10:29:08;;;;;;;3.07;0.97;;;9.50;99.90;;;;;;5138592;27;20027;-78
2024/03/13 10:31:38;;;;;;;3.13;1.30;;;9.70;99.90;;;;;;5136936;27;20035;-78
2024/03/13 10:34:04;;;;;;;2.37;1.40;;;9.70;99.90;;;;;;5134567;27;20039;-78
2024/03/13 10:36:31;;;;;;;4.80;1.40;;;9.60;99.90;;;;;;5138364;27;20031;-78
2024/03/13 10:38:57;;;;;;;3.23;1.20;;;9.70;99.90;;;;;;5139057;27;20054;-78
2024/03/13 10:41:22;;;;;;;2.23;0.93;;;9.70;99.90;;;;;;5124898;27;20024;-79
2024/03/13 10:43:48;;;;;;;3.63;1.00;;;9.70;99.90;;;;;;5116507;27;20028;-78
2024/03/13 10:46:14;;;;;;;1.43;0.90;;;9.80;99.90;;;;;;5120207;27;20024;-78
2024/03/13 10:48:39;;;;;;;2.17;0.90;;;9.70;99.90;;;;;;5130786;27;20019;-78
2024/03/13 10:51:12;;;;;;;1.13;1.00;;;9.70;99.90;;;;;;5135665;27;20044;-79
2024/03/13 10:53:38;;;;;;;3.10;0.83;;;9.60;99.90;;;;;;5137140;27;20027;-78
2024/03/13 10:56:11;;;;;;;2.40;1.00;;;9.50;99.90;;;;;;5137174;27;20527;-78
2024/03/13 10:58:36;;;;;;;1.10;1.00;;;9.40;99.90;;;;;;5137762;27;20034;-79
2024/03/13 11:01:02;;;;;;;2.03;1.20;;;9.40;99.90;;;;;;5134459;27;20016;-78
2024/03/13 11:03:27;;;;;;;1.50;1.20;;;9.30;99.90;;;;;;5133751;27;20028;-78
2024/03/13 11:05:54;;;;;;;1.57;1.03;;;9.30;99.90;;;;;;5135642;27;20027;-77
2024/03/13 11:08:21;;;;;;;1.53;1.10;;;9.30;99.90;;;;;;5136742;27;20015;-78
2024/03/13 11:10:48;;;;;;;3.30;1.10;;;9.20;99.90;;;;;;5136060;27;20050;-79
2024/03/13 11:13:14;;;;;;;1.77;1.17;;;9.20;99.90;;;;;;5120199;27;20020;-78
2024/03/13 11:15:44;;;;;;;1.57;1.10;;;9.20;99.90;;;;;;5120567;27;20114;-78
2024/03/13 11:18:11;;;;;;;2.10;1.27;;;9.20;99.90;;;;;;5118081;28;20024;-78
2024/03/13 11:20:52;;;;;;;1.57;1.10;;;9.10;99.90;;;;;;5118456;28;20479;-79
2024/03/13 11:23:33;;;;;;;1.60;0.90;;;9.10;99.90;;;;;;5118265;28;20026;-79
2024/03/13 11:26:04;;;;;;;1.10;0.93;;;9.20;99.90;;;;;;5118717;28;20020;-79
2024/03/13 11:28:33;;;;;;;2.73;1.20;;;9.30;99.90;;;;;;5118729;28;20043;-80
2024/03/13 11:31:00;;;;;;;2.63;1.20;;;9.30;99.90;;;;;;5117717;28;20395;-79
2024/03/13 11:33:26;;;;;;;1.83;1.10;;;9.30;99.90;;;;;;5117228;28;20417;-79
2024/03/13 11:35:52;;;;;;;1.63;0.97;;;9.30;99.90;;;;;;5119783;28;20054;-82
2024/03/13 11:38:19;;;;;;;3.13;1.70;;;9.30;99.90;;;;;;5125921;28;20024;-82
2024/03/13 11:40:45;;;;;;;2.20;1.40;;;9.30;99.90;;;;;;5118503;28;20057;-83
2024/03/13 11:43:11;;;;;;;1.67;1.07;;;9.30;99.90;;;;;;5112400;28;20036;-83
2024/03/13 11:45:45;;;;;;;2.93;1.00;;;9.40;99.90;;;;;;5111358;28;20428;-83
2024/03/13 11:48:18;;;;;;;4.97;2.57;;;9.50;99.90;;;;;;5119780;28;20036;-81
2024/03/13 11:51:05;;;;;;;2.23;1.30;;;9.50;99.90;;;;;;5118681;28;20368;-79
2024/03/13 11:53:34;;;;;;;2.70;1.87;;;9.50;99.90;;;;;;5120385;28;20024;-80
2024/03/13 11:56:04;;;;;;;5.70;1.67;;;9.50;99.90;;;;;;5119528;28;20023;-80
2024/03/13 11:58:33;;;;;;;1.20;1.00;;;9.50;99.90;;;;;;5118502;28;20039;-79
2024/03/13 12:00:59;;;;;;;2.93;1.53;;;9.40;99.90;;;;;;5119790;28;20028;-80
2024/03/13 12:03:35;;;;;;;1.27;1.00;;;9.40;99.90;;;;;;5118454;28;20019;-80
2024/03/13 12:06:00;;;;;;;2.70;1.40;;;9.50;99.90;;;;;;5119361;28;20031;-80
2024/03/13 12:08:29;;;;;;;1.90;1.17;;;9.60;99.90;;;;;;5116228;28;20034;-81
2024/03/13 12:10:55;;;;;;;1.50;1.10;;;9.60;99.90;;;;;;5118841;28;20031;-79
2024/03/13 12:13:21;;;;;;;1.90;1.30;;;9.60;99.90;;;;;;5119113;28;20495;-78
2024/03/13 12:15:47;;;;;;;1.87;1.20;;;9.70;99.90;;;;;;5118039;27;20028;-80
2024/03/13 12:18:14;;;;;;;1.33;1.03;;;9.70;99.90;;;;;;5131683;27;20019;-79
2024/03/13 12:20:40;;;;;;;3.80;1.90;;;9.70;99.90;;;;;;5141984;27;20015;-79
2024/03/13 12:23:06;;;;;;;2.20;1.50;;;9.70;99.90;;;;;;5141519;27;20030;-79
2024/03/13 12:25:33;;;;;;;1.13;1.03;;;9.70;99.90;;;;;;5136957;27;20035;-78
2024/03/13 12:27:59;;;;;;;2.57;1.80;;;9.70;99.90;;;;;;5135506;27;20138;-79
2024/03/13 12:30:27;;;;;;;4.60;3.43;;;9.70;99.90;;;;;;5120408;27;20039;-80
2024/03/13 12:32:53;;;;;;;2.10;1.50;;;9.70;99.90;;;;;;5126620;27;20019;-79
2024/03/13 12:35:18;;;;;;;1.33;1.13;;;9.70;99.90;;;;;;5130459;27;20023;-79
2024/03/13 12:37:50;;;;;;;2.43;2.07;;;9.70;99.90;;;;;;5131467;27;20027;-78
2024/03/13 12:40:16;;;;;;;2.50;1.80;;;9.70;99.90;;;;;;5123173;27;20024;-79
2024/03/13 12:42:48;;;;;;;3.03;1.60;;;9.70;99.90;;;;;;5128862;27;20118;-79
2024/03/13 12:45:14;;;;;;;2.60;1.60;;;9.80;99.90;;;;;;5129033;27;20015;-79
2024/03/13 12:47:44;;;;;;;2.00;1.40;;;9.80;99.90;;;;;;5130113;27;20042;-79
2024/03/13 12:50:11;;;;;;;4.13;2.37;;;9.90;99.90;;;;;;5130602;27;20100;-79
2024/03/13 12:52:40;;;;;;;8.20;2.77;;;9.90;99.90;;;;;;5131628;27;20023;-78
2024/03/13 12:55:07;;;;;;;3.00;1.40;;;9.90;99.90;;;;;;5125037;27;20020;-79
2024/03/13 12:57:36;;;;;;;4.80;1.80;;;9.90;99.90;;;;;;5131853;27;20050;-78
2024/03/13 13:00:15;;;;;;;1.97;1.50;;;10.10;99.90;;;;;;5120971;27;20480;-79
2024/03/13 13:02:44;;;;;;;3.30;2.27;;;10.30;99.90;;;;;;5125222;27;20027;-79
2024/03/13 13:05:12;;;;;;;1.03;0.90;;;10.40;99.90;;;;;;5134256;27;20044;-81
2024/03/13 13:07:50;;;;;;;2.13;1.20;;;10.60;99.90;;;;;;5138607;27;20031;-81
2024/03/13 13:10:18;;;;;;;3.73;1.17;;;10.80;99.90;;;;;;5138836;27;20479;-84
2024/03/13 13:12:44;;;;;;;2.67;1.67;;;11.00;99.90;;;;;;5138947;27;20042;-83